Time;durP1;ratioP1;P1;durP2;ratioP2;P2;SDS_P1;SDS_P2;PMS_P1;PMS_P2;Temp;Humidity;BMP_temperature;BMP_pressure;BME280_temperature;BME280_humidity;BME280_pressure;Samples;Min_cycle;Max_cycle;Signal;HPM_P1;HPM_P2
2023/04/08 00:00:47;;;;;;;26.83;13.40;;;6.10;99.90;;;;;;4992107;28;20926;-50
2023/04/08 00:03:13;;;;;;;28.73;13.60;;;6.00;1.00;;;;;;4992018;28;20191;-50
2023/04/08 00:05:38;;;;;;;29.70;14.80;;;6.10;1.00;;;;;;4991649;28;20429;-50
2023/04/08 00:08:05;;;;;;;29.83;14.30;;;6.00;1.00;;;;;;4991888;28;20306;-51
2023/04/08 00:10:31;;;;;;;31.83;14.80;;;6.00;9.80;;;;;;4991598;28;20223;-50
2023/04/08 00:12:56;;;;;;;27.47;14.43;;;6.10;99.90;;;;;;4991985;28;20446;-50
2023/04/08 00:15:22;;;;;;;24.40;12.90;;;6.00;99.90;;;;;;4991705;28;20246;-51
2023/04/08 00:17:47;;;;;;;29.33;13.90;;;6.00;99.90;;;;;;4991579;28;20195;-51
2023/04/08 00:20:13;;;;;;;30.47;14.20;;;6.00;1.00;;;;;;4991907;28;20253;-50
2023/04/08 00:22:38;;;;;;;28.20;14.47;;;6.00;1.00;;;;;;4991785;28;20195;-50
2023/04/08 00:25:08;;;;;;;24.30;12.50;;;6.00;69.00;;;;;;4991845;28;20220;-51
2023/04/08 00:27:34;;;;;;;24.07;13.60;;;6.00;99.90;;;;;;4991785;28;20203;-50
2023/04/08 00:30:00;;;;;;;29.40;15.83;;;6.00;14.00;;;;;;4991277;28;20416;-50
2023/04/08 00:32:27;;;;;;;25.23;13.23;;;6.00;1.00;;;;;;4992588;28;20195;-50
2023/04/08 00:34:52;;;;;;;25.97;12.90;;;6.00;13.40;;;;;;4995033;28;20496;-50
2023/04/08 00:37:18;;;;;;;24.93;12.23;;;6.00;99.90;;;;;;4995095;28;20509;-50
2023/04/08 00:39:44;;;;;;;24.97;13.80;;;6.10;1.00;;;;;;4995171;28;20184;-50
2023/04/08 00:42:09;;;;;;;24.37;13.93;;;6.10;99.90;;;;;;4994864;28;20546;-51
2023/04/08 00:44:35;;;;;;;29.17;13.63;;;6.00;99.90;;;;;;5001319;28;20242;-51
2023/04/08 00:47:02;;;;;;;24.53;12.23;;;6.00;99.90;;;;;;5014341;28;20651;-51
2023/04/08 00:49:29;;;;;;;24.67;13.53;;;6.20;99.90;;;;;;5014448;28;20651;-50
2023/04/08 00:51:55;;;;;;;25.63;13.57;;;6.10;1.00;;;;;;5014601;28;20473;-50
2023/04/08 00:54:20;;;;;;;21.87;12.20;;;6.10;1.00;;;;;;5014458;28;20496;-50
2023/04/08 00:56:46;;;;;;;27.20;13.30;;;6.10;1.00;;;;;;5014217;28;20333;-50
2023/04/08 00:59:12;;;;;;;22.87;12.70;;;6.10;1.00;;;;;;5014620;28;20191;-51
2023/04/08 01:01:53;;;;;;;25.53;14.00;;;6.10;99.90;;;;;;5014135;28;20248;-51
2023/04/08 01:04:45;;;;;;;18.70;11.17;;;6.10;1.00;;;;;;5014453;28;20223;-50
2023/04/08 01:07:17;;;;;;;22.00;13.13;;;6.10;1.00;;;;;;4993046;28;20465;-50
2023/04/08 01:09:49;;;;;;;26.70;12.90;;;6.20;99.90;;;;;;5014685;28;20436;-49
2023/04/08 01:12:26;;;;;;;21.07;12.40;;;6.10;99.90;;;;;;5014173;28;20485;-51
2023/04/08 01:15:00;;;;;;;23.77;12.27;;;6.10;99.90;;;;;;5014170;28;20592;-51
2023/04/08 01:17:26;;;;;;;30.20;16.20;;;6.10;98.30;;;;;;5014219;28;20413;-51
2023/04/08 01:19:56;;;;;;;19.60;11.33;;;6.10;99.90;;;;;;5014189;28;20426;-50
2023/04/08 01:22:39;;;;;;;25.20;12.00;;;6.20;99.90;;;;;;5013758;28;21202;-51
2023/04/08 01:25:11;;;;;;;20.33;11.73;;;6.30;99.90;;;;;;5014021;28;20417;-52
2023/04/08 01:27:38;;;;;;;24.93;12.33;;;6.30;1.00;;;;;;5013812;28;20406;-51
2023/04/08 01:30:05;;;;;;;25.50;12.43;;;6.20;1.00;;;;;;5013418;28;20422;-51
2023/04/08 01:32:32;;;;;;;20.93;11.20;;;6.20;1.00;;;;;;5012291;28;20517;-51
2023/04/08 01:35:00;;;;;;;22.83;11.90;;;6.30;1.00;;;;;;5013540;28;20929;-52
2023/04/08 01:37:28;;;;;;;22.30;11.83;;;6.30;99.90;;;;;;5013584;28;20422;-51
2023/04/08 01:39:55;;;;;;;24.80;12.40;;;6.30;99.90;;;;;;5013670;28;20441;-51
2023/04/08 01:42:24;;;;;;;22.67;11.73;;;6.20;99.90;;;;;;5012439;28;20413;-50
2023/04/08 01:44:51;;;;;;;24.33;11.57;;;6.20;99.90;;;;;;5013138;28;20471;-50
2023/04/08 01:47:17;;;;;;;20.40;11.87;;;6.20;99.90;;;;;;5013689;28;20736;-51
2023/04/08 01:49:44;;;;;;;24.20;13.27;;;6.30;99.90;;;;;;5013477;28;20434;-51
2023/04/08 01:52:10;;;;;;;27.37;14.17;;;6.20;99.90;;;;;;5013460;28;20573;-51
2023/04/08 01:54:35;;;;;;;25.20;12.80;;;6.30;94.00;;;;;;5013444;28;20465;-51
2023/04/08 01:57:07;;;;;;;23.17;12.70;;;6.20;35.40;;;;;;5013533;28;20449;-51
2023/04/08 01:59:35;;;;;;;42.77;21.57;;;6.10;99.90;;;;;;5013052;28;20712;-50
2023/04/08 02:02:02;;;;;;;28.60;13.50;;;6.10;99.90;;;;;;5013247;28;20437;-50
2023/04/08 02:04:28;;;;;;;29.70;17.57;;;6.20;99.90;;;;;;5013331;28;20465;-51
2023/04/08 02:06:56;;;;;;;25.90;12.50;;;6.10;99.90;;;;;;5012932;28;20444;-52
2023/04/08 02:09:21;;;;;;;23.60;12.80;;;6.10;99.90;;;;;;5013074;28;20214;-51
2023/04/08 02:11:47;;;;;;;23.70;11.53;;;6.10;99.90;;;;;;5013061;28;20456;-51
2023/04/08 02:14:13;;;;;;;20.20;11.50;;;6.20;99.90;;;;;;5012949;28;20222;-51
2023/04/08 02:16:55;;;;;;;22.20;11.13;;;6.10;96.70;;;;;;5012755;28;20182;-51
2023/04/08 02:19:35;;;;;;;20.07;12.73;;;6.10;3.40;;;;;;5013008;28;20570;-52
2023/04/08 02:22:22;;;;;;;23.40;12.77;;;6.10;79.20;;;;;;5012957;28;20811;-51
2023/04/08 02:24:49;;;;;;;22.63;12.83;;;6.10;99.90;;;;;;5012870;28;20429;-51
2023/04/08 02:27:16;;;;;;;23.77;13.53;;;6.10;99.90;;;;;;5012934;28;20479;-51
2023/04/08 02:29:42;;;;;;;21.23;11.60;;;6.10;99.90;;;;;;5012367;28;21002;-51
2023/04/08 02:32:11;;;;;;;26.63;13.90;;;6.20;99.90;;;;;;5012820;28;20473;-51
2023/04/08 02:34:39;;;;;;;22.60;13.50;;;6.10;99.90;;;;;;5012745;28;20436;-51
2023/04/08 02:37:07;;;;;;;27.30;13.63;;;6.10;99.90;;;;;;5012702;28;20429;-50
2023/04/08 02:39:33;;;;;;;27.17;13.30;;;6.10;99.90;;;;;;5012315;28;20433;-49
2023/04/08 02:41:58;;;;;;;21.40;12.73;;;6.10;99.90;;;;;;5012323;28;20433;-49
2023/04/08 02:44:24;;;;;;;20.40;12.70;;;6.20;99.90;;;;;;5012219;28;20247;-49
2023/04/08 02:46:50;;;;;;;21.30;12.80;;;6.20;99.90;;;;;;5012361;28;20241;-49
2023/04/08 02:49:15;;;;;;;20.70;12.80;;;6.10;45.50;;;;;;5012046;28;20193;-48
2023/04/08 02:51:41;;;;;;;22.73;12.60;;;6.10;99.90;;;;;;5012538;28;20300;-48
2023/04/08 02:54:06;;;;;;;19.07;12.93;;;6.00;99.90;;;;;;5012375;28;20658;-50
2023/04/08 02:56:32;;;;;;;21.60;12.83;;;6.10;99.90;;;;;;5011959;28;20293;-48
2023/04/08 02:58:58;;;;;;;20.30;12.20;;;6.10;99.90;;;;;;5012239;28;20664;-49
2023/04/08 03:01:23;;;;;;;21.53;12.23;;;6.00;99.90;;;;;;5011940;28;20730;-50
2023/04/08 03:03:49;;;;;;;26.63;13.73;;;6.00;99.90;;;;;;5011951;28;20189;-48
2023/04/08 03:06:15;;;;;;;30.67;14.77;;;6.00;99.90;;;;;;5012251;28;20267;-49
2023/04/08 03:08:41;;;;;;;26.70;13.97;;;6.00;1.00;;;;;;5011911;28;20413;-48
2023/04/08 03:11:07;;;;;;;25.87;16.10;;;6.10;99.90;;;;;;5012046;28;20215;-50
2023/04/08 03:13:33;;;;;;;25.17;13.57;;;6.20;99.90;;;;;;5012073;28;20670;-49
2023/04/08 03:15:58;;;;;;;23.23;14.07;;;6.10;15.80;;;;;;5012100;28;20218;-49
2023/04/08 03:18:24;;;;;;;23.67;14.27;;;6.00;56.60;;;;;;5012048;28;20452;-48
2023/04/08 03:20:50;;;;;;;23.27;14.20;;;6.00;27.40;;;;;;5011667;28;20679;-49
2023/04/08 03:23:16;;;;;;;22.00;13.77;;;6.00;43.50;;;;;;5012038;28;20425;-48
2023/04/08 03:25:41;;;;;;;27.03;14.97;;;6.00;20.40;;;;;;5011937;28;20572;-49
2023/04/08 03:28:07;;;;;;;22.27;13.97;;;5.90;99.90;;;;;;5011833;28;20433;-49
2023/04/08 03:30:32;;;;;;;24.57;14.97;;;6.00;99.90;;;;;;5011401;28;20202;-49
2023/04/08 03:32:58;;;;;;;26.77;13.83;;;6.00;94.40;;;;;;5011795;28;20230;-49
2023/04/08 03:35:24;;;;;;;22.43;13.73;;;5.90;99.90;;;;;;5011534;28;20182;-49
2023/04/08 03:37:50;;;;;;;26.63;15.47;;;6.00;99.90;;;;;;5011599;28;20659;-49
2023/04/08 03:40:15;;;;;;;28.10;16.60;;;6.00;99.90;;;;;;5011392;28;20183;-49
2023/04/08 03:42:41;;;;;;;24.73;14.53;;;5.90;99.90;;;;;;5011716;28;20270;-49
2023/04/08 03:45:07;;;;;;;27.83;15.50;;;5.90;99.90;;;;;;5011134;28;20238;-49
2023/04/08 03:47:33;;;;;;;27.80;16.00;;;5.90;99.90;;;;;;5012783;28;20198;-50
2023/04/08 03:49:58;;;;;;;31.43;16.30;;;5.80;99.90;;;;;;5013800;28;20824;-48
2023/04/08 03:52:24;;;;;;;28.50;15.23;;;5.80;99.90;;;;;;5013754;28;20182;-48
2023/04/08 03:54:50;;;;;;;37.50;16.60;;;5.80;1.00;;;;;;5013382;28;20178;-48
2023/04/08 03:57:15;;;;;;;28.37;16.10;;;5.80;1.00;;;;;;5013979;28;20219;-48
2023/04/08 03:59:41;;;;;;;34.03;16.73;;;5.70;1.00;;;;;;5013531;28;20210;-48
2023/04/08 04:02:06;;;;;;;30.83;15.80;;;5.70;99.90;;;;;;5013539;28;20187;-49
2023/04/08 04:04:33;;;;;;;30.00;16.70;;;5.70;1.00;;;;;;5013672;28;20244;-48
2023/04/08 04:06:58;;;;;;;35.73;16.73;;;5.70;1.00;;;;;;5013806;28;20187;-48
2023/04/08 04:09:24;;;;;;;31.67;15.40;;;5.70;99.90;;;;;;5017217;28;20414;-48
2023/04/08 04:11:49;;;;;;;33.03;17.30;;;5.70;99.90;;;;;;5017231;28;20565;-49
2023/04/08 04:14:15;;;;;;;31.50;17.00;;;5.70;99.90;;;;;;5017570;28;20276;-48
2023/04/08 04:16:41;;;;;;;36.93;18.20;;;5.70;99.90;;;;;;5017881;28;20599;-48
2023/04/08 04:19:06;;;;;;;35.47;18.27;;;5.70;99.90;;;;;;5017374;28;20271;-47
2023/04/08 04:21:32;;;;;;;35.60;17.90;;;5.60;99.90;;;;;;5017208;28;20269;-47
2023/04/08 04:23:57;;;;;;;43.10;18.97;;;5.60;99.90;;;;;;5017035;28;20654;-48
2023/04/08 04:26:23;;;;;;;45.93;20.67;;;5.50;59.80;;;;;;5017087;28;20269;-48
2023/04/08 04:28:49;;;;;;;36.73;18.33;;;5.50;1.00;;;;;;5017365;28;20182;-47
2023/04/08 04:31:21;;;;;;;43.10;18.07;;;5.50;99.90;;;;;;5016923;28;20922;-47
2023/04/08 04:33:47;;;;;;;47.53;19.20;;;5.50;1.00;;;;;;5017074;28;20190;-47
2023/04/08 04:36:14;;;;;;;37.53;19.70;;;5.50;1.00;;;;;;5017256;28;20751;-48
2023/04/08 04:38:41;;;;;;;36.73;18.60;;;5.50;99.90;;;;;;5016872;28;20418;-48
2023/04/08 04:41:07;;;;;;;41.50;19.80;;;5.50;1.00;;;;;;5016435;28;20925;-47
2023/04/08 04:43:32;;;;;;;46.07;19.63;;;5.60;1.00;;;;;;5016674;28;20555;-47
2023/04/08 04:45:58;;;;;;;45.50;19.50;;;5.60;99.90;;;;;;5016385;28;20253;-48
2023/04/08 04:48:24;;;;;;;50.27;20.47;;;5.60;99.90;;;;;;5016818;28;20317;-48
2023/04/08 04:50:56;;;;;;;41.67;19.27;;;5.60;25.90;;;;;;5016308;28;20214;-48
2023/04/08 04:53:22;;;;;;;41.77;19.07;;;5.50;89.70;;;;;;5016560;28;20194;-48
2023/04/08 04:55:49;;;;;;;40.97;18.43;;;5.60;99.90;;;;;;5015952;28;20422;-48
2023/04/08 04:58:15;;;;;;;44.67;19.50;;;5.60;1.00;;;;;;5015689;28;20185;-48
2023/04/08 05:00:40;;;;;;;37.93;19.27;;;5.50;69.40;;;;;;5016534;28;20433;-48
2023/04/08 05:03:06;;;;;;;43.80;19.67;;;5.50;99.90;;;;;;5016539;28;20558;-48
2023/04/08 05:05:32;;;;;;;47.27;19.67;;;5.50;99.90;;;;;;5016381;28;20179;-48
2023/04/08 05:07:57;;;;;;;47.13;19.83;;;5.50;99.90;;;;;;5016641;28;20232;-48
2023/04/08 05:10:23;;;;;;;44.23;21.60;;;5.50;99.90;;;;;;5016174;28;20218;-48
2023/04/08 05:12:49;;;;;;;43.50;19.20;;;5.60;99.90;;;;;;5016251;28;20194;-48
2023/04/08 05:15:15;;;;;;;45.03;20.67;;;5.60;1.00;;;;;;5016071;28;20183;-48
2023/04/08 05:17:40;;;;;;;42.50;21.07;;;5.60;99.90;;;;;;5016011;28;20210;-48
2023/04/08 05:20:06;;;;;;;37.47;17.80;;;5.70;99.90;;;;;;5015742;28;20418;-48
2023/04/08 05:22:33;;;;;;;42.90;18.53;;;5.60;99.90;;;;;;5015987;28;20187;-48
2023/04/08 05:24:59;;;;;;;39.57;18.80;;;5.70;99.90;;;;;;5015756;28;20425;-48
2023/04/08 05:27:25;;;;;;;41.73;18.53;;;5.60;1.00;;;;;;5016329;28;20851;-47
2023/04/08 05:29:50;;;;;;;40.27;18.70;;;5.60;1.00;;;;;;5015889;28;21017;-48
2023/04/08 05:32:16;;;;;;;40.77;18.93;;;5.60;77.30;;;;;;5015519;28;20214;-48
2023/04/08 05:34:42;;;;;;;41.37;18.97;;;5.70;57.70;;;;;;5015975;28;20232;-48
2023/04/08 05:37:07;;;;;;;42.50;18.07;;;5.70;1.00;;;;;;5015503;28;20191;-47
2023/04/08 05:39:33;;;;;;;35.97;18.63;;;5.80;1.00;;;;;;5016208;28;20413;-48
2023/04/08 05:41:59;;;;;;;39.27;18.03;;;5.80;1.00;;;;;;5015905;28;20206;-48
2023/04/08 05:44:24;;;;;;;39.97;18.50;;;5.80;1.00;;;;;;5015290;28;20635;-48
2023/04/08 05:46:50;;;;;;;39.70;17.77;;;5.80;99.90;;;;;;5015596;28;20702;-48
2023/04/08 05:49:16;;;;;;;35.57;17.70;;;5.70;99.90;;;;;;5015127;28;20187;-48
2023/04/08 05:51:42;;;;;;;36.27;17.50;;;5.70;99.90;;;;;;5015513;28;20290;-48
2023/04/08 05:54:09;;;;;;;41.77;16.80;;;5.70;99.90;;;;;;5015776;28;20214;-48
2023/04/08 05:56:34;;;;;;;36.50;17.67;;;5.70;1.00;;;;;;5015501;28;20422;-49
2023/04/08 05:59:00;;;;;;;36.43;18.33;;;5.80;1.00;;;;;;5015527;28;20180;-48
2023/04/08 06:01:26;;;;;;;36.23;18.20;;;5.80;1.00;;;;;;5014895;28;20524;-49
2023/04/08 06:03:51;;;;;;;34.07;17.70;;;5.80;57.10;;;;;;5015448;28;20182;-48
2023/04/08 06:06:17;;;;;;;40.83;18.23;;;5.80;99.90;;;;;;5015451;28;20591;-48
2023/04/08 06:08:43;;;;;;;35.83;17.90;;;5.70;99.90;;;;;;5015338;28;20241;-48
2023/04/08 06:11:08;;;;;;;33.53;17.60;;;5.80;99.90;;;;;;5015033;28;20210;-48
2023/04/08 06:13:34;;;;;;;34.70;18.17;;;5.70;99.90;;;;;;5014897;28;20191;-49
2023/04/08 06:16:10;;;;;;;39.37;17.60;;;5.70;99.90;;;;;;5015141;28;20194;-48
2023/04/08 06:18:35;;;;;;;47.67;19.60;;;5.60;99.90;;;;;;5015087;28;20181;-47
2023/04/08 06:21:01;;;;;;;43.30;19.97;;;5.70;1.00;;;;;;5014897;28;20417;-48
2023/04/08 06:23:27;;;;;;;46.90;21.07;;;5.70;99.90;;;;;;5014974;28;20270;-48
2023/04/08 06:25:53;;;;;;;51.57;22.30;;;5.70;63.60;;;;;;5015047;28;20946;-48
2023/04/08 06:28:18;;;;;;;46.13;21.13;;;5.80;1.00;;;;;;5014722;28;20188;-47
2023/04/08 06:30:44;;;;;;;41.77;19.80;;;5.80;99.90;;;;;;5014480;28;20215;-47
2023/04/08 06:33:09;;;;;;;43.83;19.60;;;5.80;99.90;;;;;;5015051;28;20186;-48
2023/04/08 06:35:36;;;;;;;44.13;19.37;;;5.70;1.00;;;;;;5014666;28;20539;-48
2023/04/08 06:38:02;;;;;;;46.30;20.00;;;5.70;1.00;;;;;;5014766;28;20197;-47
2023/04/08 06:40:28;;;;;;;39.47;18.33;;;5.70;1.00;;;;;;5014775;28;20431;-48
2023/04/08 06:42:53;;;;;;;39.23;17.60;;;5.70;8.80;;;;;;5014648;28;20177;-48
2023/04/08 06:45:19;;;;;;;40.57;18.30;;;5.80;1.00;;;;;;5014388;28;20231;-48
2023/04/08 06:47:44;;;;;;;48.50;20.00;;;5.80;1.00;;;;;;5014695;28;20190;-47
2023/04/08 06:50:10;;;;;;;44.30;18.60;;;5.80;1.00;;;;;;5014241;28;20634;-48
2023/04/08 06:52:35;;;;;;;38.63;18.90;;;5.80;1.00;;;;;;5014332;28;20195;-48
2023/04/08 06:55:01;;;;;;;41.67;19.30;;;5.80;99.90;;;;;;5014313;28;20552;-47
2023/04/08 06:57:27;;;;;;;40.73;19.73;;;5.80;99.90;;;;;;5014106;28;20187;-47
2023/04/08 06:59:52;;;;;;;42.27;19.40;;;5.80;99.90;;;;;;5014352;28;20179;-48
2023/04/08 07:02:18;;;;;;;40.47;19.10;;;5.80;1.00;;;;;;5014654;28;20650;-48
2023/04/08 07:04:44;;;;;;;35.80;17.80;;;5.80;1.00;;;;;;5013958;28;20198;-49
2023/04/08 07:07:09;;;;;;;38.40;19.03;;;5.90;99.90;;;;;;5014273;28;20285;-48
2023/04/08 07:09:35;;;;;;;39.10;17.57;;;5.90;1.00;;;;;;5014203;28;20182;-47
2023/04/08 07:12:03;;;;;;;33.80;17.53;;;5.90;4.20;;;;;;5013754;28;20708;-48
2023/04/08 07:14:29;;;;;;;33.30;17.23;;;6.00;99.90;;;;;;5013960;28;20281;-48
2023/04/08 07:16:55;;;;;;;39.13;18.23;;;6.00;1.00;;;;;;5014049;28;20557;-48
2023/04/08 07:19:23;;;;;;;33.73;16.87;;;6.00;99.90;;;;;;5013926;28;20418;-48
2023/04/08 07:21:48;;;;;;;32.07;16.80;;;6.00;1.00;;;;;;5013774;28;20260;-48
2023/04/08 07:24:14;;;;;;;40.33;18.47;;;6.10;3.00;;;;;;5013962;28;20521;-48
2023/04/08 07:26:40;;;;;;;35.17;18.07;;;6.10;1.00;;;;;;5013946;28;20255;-48
2023/04/08 07:29:06;;;;;;;34.30;18.23;;;6.10;99.90;;;;;;5014218;28;20983;-48
2023/04/08 07:31:32;;;;;;;31.30;15.40;;;6.20;1.00;;;;;;5013404;28;20212;-48
2023/04/08 07:33:58;;;;;;;32.53;16.87;;;6.20;99.90;;;;;;5013709;28;20218;-48
2023/04/08 07:36:23;;;;;;;31.43;16.47;;;6.20;99.90;;;;;;5013864;28;20521;-48
2023/04/08 07:38:49;;;;;;;36.87;16.57;;;6.40;56.20;;;;;;5013860;28;20604;-49
2023/04/08 07:41:14;;;;;;;37.37;16.80;;;6.40;1.00;;;;;;5013562;28;20191;-49
2023/04/08 07:43:40;;;;;;;35.90;17.17;;;6.50;1.00;;;;;;5013915;28;20178;-48
2023/04/08 07:46:06;;;;;;;33.97;16.33;;;6.40;1.00;;;;;;5014055;28;20226;-48
2023/04/08 07:48:33;;;;;;;30.17;15.83;;;6.40;99.90;;;;;;5013856;28;20616;-48
2023/04/08 07:51:06;;;;;;;30.80;15.70;;;6.40;1.00;;;;;;5013463;28;20471;-48
2023/04/08 07:53:32;;;;;;;31.77;16.13;;;6.40;99.90;;;;;;5013303;28;20428;-48
2023/04/08 07:55:58;;;;;;;32.97;15.93;;;6.40;99.90;;;;;;5013631;28;20426;-48
2023/04/08 07:58:23;;;;;;;30.53;15.30;;;6.50;99.90;;;;;;5013700;28;20723;-49
2023/04/08 08:00:49;;;;;;;29.00;14.63;;;6.50;99.90;;;;;;5013569;28;20508;-49
2023/04/08 08:03:15;;;;;;;24.50;13.40;;;6.50;99.90;;;;;;5013618;28;20658;-49
2023/04/08 08:05:41;;;;;;;29.23;14.93;;;6.60;1.00;;;;;;5013731;28;20918;-48
2023/04/08 08:08:06;;;;;;;28.00;15.73;;;6.60;99.90;;;;;;5013694;28;20186;-49
2023/04/08 08:10:32;;;;;;;26.43;14.17;;;6.70;99.90;;;;;;5013145;28;20524;-49
2023/04/08 08:12:58;;;;;;;27.50;13.60;;;6.80;99.90;;;;;;5013665;28;20537;-50
2023/04/08 08:15:24;;;;;;;28.53;15.43;;;6.90;1.00;;;;;;5013659;28;20528;-49
2023/04/08 08:17:49;;;;;;;25.13;13.90;;;6.90;99.90;;;;;;5013622;28;20217;-49
2023/04/08 08:20:15;;;;;;;29.83;14.63;;;6.80;99.90;;;;;;5013329;28;20179;-49
2023/04/08 08:22:41;;;;;;;31.63;14.77;;;6.90;99.90;;;;;;5013034;28;20194;-49
2023/04/08 08:25:08;;;;;;;31.70;15.17;;;6.90;99.90;;;;;;5013404;28;20420;-49
2023/04/08 08:27:35;;;;;;;31.07;15.93;;;6.90;97.70;;;;;;5013559;28;20187;-49
2023/04/08 08:30:01;;;;;;;27.03;14.97;;;6.80;36.00;;;;;;5013446;28;20890;-50
2023/04/08 08:32:27;;;;;;;36.00;17.13;;;6.80;99.90;;;;;;5012905;28;20469;-49
2023/04/08 08:34:52;;;;;;;30.97;16.30;;;6.80;99.90;;;;;;5013088;28;20422;-49
2023/04/08 08:37:18;;;;;;;32.07;16.40;;;6.80;99.90;;;;;;5013129;28;20183;-51
2023/04/08 08:39:43;;;;;;;32.90;16.07;;;6.90;99.90;;;;;;5012972;28;20673;-50
2023/04/08 08:42:22;;;;;;;30.87;16.27;;;7.00;99.90;;;;;;5013661;28;20241;-49
2023/04/08 08:44:48;;;;;;;36.23;16.50;;;6.90;99.90;;;;;;5012955;28;20245;-50
2023/04/08 08:47:15;;;;;;;34.73;17.40;;;7.00;99.90;;;;;;5011916;28;20785;-49
2023/04/08 08:49:41;;;;;;;29.03;15.40;;;7.00;99.90;;;;;;5013475;28;20816;-49
2023/04/08 08:52:07;;;;;;;28.73;15.20;;;7.10;99.90;;;;;;5013197;28;20549;-50
2023/04/08 08:54:33;;;;;;;28.13;15.03;;;7.20;25.40;;;;;;5015545;28;20470;-50
2023/04/08 08:56:58;;;;;;;29.10;14.53;;;7.30;1.00;;;;;;5016632;28;20198;-49
2023/04/08 08:59:24;;;;;;;25.50;14.07;;;7.30;1.00;;;;;;5016234;28;20265;-49
2023/04/08 09:01:51;;;;;;;28.60;14.93;;;7.40;1.00;;;;;;5016437;28;20190;-49
2023/04/08 09:04:19;;;;;;;32.33;15.40;;;7.40;1.00;;;;;;5014426;28;20222;-51
2023/04/08 09:06:46;;;;;;;28.23;15.10;;;7.50;1.00;;;;;;5016290;28;20418;-50
2023/04/08 09:09:12;;;;;;;28.60;14.33;;;7.50;1.00;;;;;;5016083;28;20434;-51
2023/04/08 09:11:40;;;;;;;32.43;14.80;;;7.50;1.00;;;;;;5016007;28;20476;-50
2023/04/08 09:14:20;;;;;;;24.83;14.73;;;7.50;1.00;;;;;;5015917;28;20433;-50
2023/04/08 09:16:46;;;;;;;24.33;15.40;;;7.50;1.00;;;;;;5015833;28;20422;-50
2023/04/08 09:19:12;;;;;;;30.67;16.80;;;7.50;99.90;;;;;;5014864;28;20764;-50
2023/04/08 09:21:39;;;;;;;30.57;16.53;;;7.50;1.00;;;;;;5015756;28;20253;-50
2023/04/08 09:24:05;;;;;;;28.50;15.50;;;7.60;99.90;;;;;;5015635;28;20823;-50
2023/04/08 09:26:31;;;;;;;27.40;16.13;;;7.70;99.90;;;;;;5015392;28;20414;-51
2023/04/08 09:29:01;;;;;;;31.70;15.50;;;7.80;99.90;;;;;;5015775;28;20213;-51
2023/04/08 09:31:37;;;;;;;30.67;16.17;;;7.80;99.90;;;;;;5015582;28;20517;-51
2023/04/08 09:34:18;;;;;;;28.03;16.60;;;7.70;99.90;;;;;;5015591;28;20940;-48
2023/04/08 09:36:44;;;;;;;33.20;16.43;;;7.80;99.90;;;;;;5015579;28;20417;-48
2023/04/08 09:39:10;;;;;;;31.80;15.80;;;7.80;99.90;;;;;;5015651;28;20445;-51
2023/04/08 09:41:38;;;;;;;26.27;15.20;;;7.80;99.90;;;;;;5015583;28;20454;-50
2023/04/08 09:44:06;;;;;;;29.67;14.60;;;8.00;99.90;;;;;;5015725;28;20190;-50
2023/04/08 09:46:51;;;;;;;27.43;13.90;;;8.10;99.90;;;;;;5015561;28;20409;-49
2023/04/08 09:49:28;;;;;;;27.00;14.97;;;8.20;99.90;;;;;;5015365;28;20421;-48
2023/04/08 09:52:08;;;;;;;26.93;14.80;;;8.20;99.90;;;;;;5014827;28;20475;-48
2023/04/08 09:54:49;;;;;;;26.73;15.50;;;8.20;99.90;;;;;;5015098;28;20423;-48
2023/04/08 09:57:44;;;;;;;28.20;14.17;;;8.20;99.90;;;;;;5015322;28;20456;-50
2023/04/08 10:00:13;;;;;;;25.27;13.90;;;8.20;99.90;;;;;;5000612;28;20473;-49
2023/04/08 10:02:45;;;;;;;24.90;14.60;;;8.30;99.90;;;;;;5014841;28;20941;-49
2023/04/08 10:05:12;;;;;;;24.67;14.10;;;8.30;95.70;;;;;;5013746;28;20948;-48
2023/04/08 10:07:38;;;;;;;24.67;14.80;;;8.30;93.70;;;;;;5015162;28;20425;-48
2023/04/08 10:10:06;;;;;;;30.93;15.90;;;8.30;75.10;;;;;;5014695;28;20513;-49
2023/04/08 10:12:32;;;;;;;26.13;16.23;;;8.20;56.30;;;;;;5014488;28;20477;-49
2023/04/08 10:15:24;;;;;;;25.67;15.63;;;8.20;63.90;;;;;;5013690;28;20487;-49
2023/04/08 10:17:51;;;;;;;29.03;16.50;;;8.30;99.90;;;;;;5014434;28;20424;-49
2023/04/08 10:20:37;;;;;;;31.23;16.80;;;8.40;99.90;;;;;;5014504;28;20417;-49
2023/04/08 10:23:07;;;;;;;31.87;16.30;;;8.50;96.00;;;;;;5014947;28;20783;-48
2023/04/08 10:25:33;;;;;;;27.30;15.53;;;8.50;53.00;;;;;;5015148;28;20918;-48
2023/04/08 10:28:02;;;;;;;28.47;15.80;;;8.50;36.30;;;;;;5014994;28;20422;-48
2023/04/08 10:30:27;;;;;;;32.07;16.97;;;8.50;68.70;;;;;;5014882;28;20433;-49
2023/04/08 10:33:00;;;;;;;31.40;16.63;;;8.60;33.00;;;;;;5014975;28;20491;-48
2023/04/08 10:35:34;;;;;;;30.43;15.70;;;8.60;5.70;;;;;;5014445;28;20203;-49
2023/04/08 10:38:01;;;;;;;26.60;15.30;;;8.50;17.10;;;;;;5014567;28;20463;-48
2023/04/08 10:40:26;;;;;;;27.43;14.37;;;8.40;20.20;;;;;;5014665;28;20421;-48
2023/04/08 10:42:55;;;;;;;28.93;15.83;;;8.30;24.40;;;;;;5014335;28;20425;-48
2023/04/08 10:45:21;;;;;;;30.40;14.67;;;8.40;67.50;;;;;;5014802;28;20235;-48
2023/04/08 10:47:47;;;;;;;27.10;16.17;;;8.40;32.30;;;;;;5014779;28;20424;-48
2023/04/08 10:50:14;;;;;;;27.73;15.17;;;8.40;20.20;;;;;;5014534;28;20190;-48
2023/04/08 10:52:53;;;;;;;25.90;14.27;;;8.50;35.30;;;;;;5014523;28;20203;-48
2023/04/08 10:55:23;;;;;;;30.23;16.47;;;8.50;11.80;;;;;;5014295;28;20434;-48
2023/04/08 10:57:50;;;;;;;27.03;16.27;;;8.50;7.30;;;;;;5014601;28;20414;-48
2023/04/08 11:00:33;;;;;;;28.10;16.83;;;8.50;7.50;;;;;;5014169;28;20426;-50
2023/04/08 11:03:10;;;;;;;27.93;16.67;;;8.40;8.50;;;;;;5014127;28;20398;-49
2023/04/08 11:05:37;;;;;;;29.93;17.03;;;8.40;20.10;;;;;;5014662;28;20771;-48
2023/04/08 11:08:04;;;;;;;27.53;16.67;;;8.40;40.20;;;;;;5014594;28;20801;-50
2023/04/08 11:10:36;;;;;;;32.50;16.70;;;8.40;25.10;;;;;;5014018;28;20513;-49
2023/04/08 11:13:02;;;;;;;32.33;16.40;;;8.40;33.10;;;;;;5014223;28;20421;-49
2023/04/08 11:15:29;;;;;;;30.10;17.00;;;8.50;26.90;;;;;;5013970;28;20417;-48
2023/04/08 11:17:55;;;;;;;27.77;16.37;;;8.50;28.30;;;;;;5013350;28;20461;-49
2023/04/08 11:20:21;;;;;;;27.73;16.50;;;8.40;4.30;;;;;;5013780;28;20505;-49
2023/04/08 11:22:47;;;;;;;29.23;17.30;;;8.30;20.50;;;;;;5014272;28;20425;-50
2023/04/08 11:25:13;;;;;;;31.33;17.30;;;8.40;43.40;;;;;;5014320;28;20227;-49
2023/04/08 11:27:39;;;;;;;26.97;16.60;;;8.40;52.00;;;;;;5013850;28;20445;-49
2023/04/08 11:30:06;;;;;;;29.30;17.50;;;8.40;42.80;;;;;;5013928;28;20448;-49
2023/04/08 11:32:34;;;;;;;32.80;17.53;;;8.40;44.60;;;;;;5013820;28;20206;-50
2023/04/08 11:35:01;;;;;;;32.50;17.27;;;8.30;53.00;;;;;;5013456;28;20839;-49
2023/04/08 11:37:36;;;;;;;32.50;17.50;;;8.30;84.30;;;;;;5013640;28;20454;-50
2023/04/08 11:40:05;;;;;;;34.90;17.60;;;8.30;70.90;;;;;;5013703;28;20456;-50
2023/04/08 11:42:32;;;;;;;33.73;19.17;;;8.30;59.70;;;;;;5014028;28;20417;-49
2023/04/08 11:44:57;;;;;;;30.17;18.37;;;8.30;45.80;;;;;;5013570;28;20482;-49
2023/04/08 11:47:31;;;;;;;33.93;19.90;;;8.30;80.50;;;;;;5013873;28;20423;-50
2023/04/08 11:49:57;;;;;;;36.17;19.80;;;8.40;84.20;;;;;;5013394;28;20268;-49
2023/04/08 11:52:39;;;;;;;36.70;19.03;;;8.40;54.30;;;;;;5013679;28;20488;-49
2023/04/08 11:55:04;;;;;;;36.70;19.70;;;8.40;70.20;;;;;;5013348;28;20789;-50
2023/04/08 11:57:31;;;;;;;34.93;20.17;;;8.40;56.00;;;;;;5013482;28;20425;-49
2023/04/08 11:59:57;;;;;;;34.67;19.20;;;8.50;44.90;;;;;;5013441;28;20424;-48
2023/04/08 12:02:23;;;;;;;35.13;18.83;;;8.50;33.20;;;;;;5013159;28;20428;-49
2023/04/08 12:04:48;;;;;;;27.20;18.20;;;8.50;44.80;;;;;;5013553;28;20248;-49
2023/04/08 12:07:14;;;;;;;31.00;18.20;;;8.50;6.00;;;;;;5013319;28;20217;-49
2023/04/08 12:09:39;;;;;;;36.27;21.17;;;8.50;30.30;;;;;;5013447;28;20186;-49
2023/04/08 12:12:06;;;;;;;33.30;19.53;;;8.50;17.50;;;;;;5013576;28;20594;-49
2023/04/08 12:14:31;;;;;;;42.30;19.73;;;8.50;44.30;;;;;;5013399;28;20566;-49
2023/04/08 12:16:57;;;;;;;34.17;19.80;;;8.60;51.30;;;;;;5013484;28;20422;-49
2023/04/08 12:19:23;;;;;;;39.83;20.47;;;8.60;41.10;;;;;;5013206;28;20528;-49
2023/04/08 12:21:48;;;;;;;34.70;19.00;;;8.70;51.20;;;;;;5013499;28;20205;-49
2023/04/08 12:24:14;;;;;;;33.67;19.97;;;8.70;17.40;;;;;;5013362;28;20174;-49
2023/04/08 12:26:39;;;;;;;36.67;20.33;;;8.80;15.40;;;;;;5013678;28;20277;-49
2023/04/08 12:29:05;;;;;;;40.67;20.67;;;8.80;2.80;;;;;;5015415;28;20186;-49
2023/04/08 12:31:31;;;;;;;39.60;21.63;;;8.80;6.30;;;;;;5017069;28;20210;-49
2023/04/08 12:33:56;;;;;;;37.23;20.80;;;8.90;11.60;;;;;;5016986;28;20230;-49
2023/04/08 12:36:22;;;;;;;35.93;19.50;;;8.90;1.00;;;;;;5015699;28;20178;-49
2023/04/08 12:38:48;;;;;;;39.03;20.70;;;8.90;1.00;;;;;;5017225;28;20182;-48
2023/04/08 12:41:13;;;;;;;33.27;20.00;;;8.80;1.00;;;;;;5016974;28;20190;-50